sensor_id;sensor_type;location;lat;lon;timestamp;pressure;altitude;pressure_sealevel;temperature;humidity
5814;BME280;2933;52.302;8.134;2023-04-27T00:02:05;100941.41;;;4.13;100.00
5814;BME280;2933;52.302;8.134;2023-04-27T00:07:07;100943.69;;;3.91;100.00
5814;BME280;2933;52.302;8.134;2023-04-27T00:12:08;100937.22;;;4.09;100.00
5814;BME280;2933;52.302;8.134;2023-04-27T00:17:11;100938.72;;;3.83;100.00
5814;BME280;2933;52.302;8.134;2023-04-27T00:22:13;100935.44;;;3.77;100.00
5814;BME280;2933;52.302;8.134;2023-04-27T00:27:15;100935.78;;;3.63;100.00
5814;BME280;2933;52.302;8.134;2023-04-27T00:32:17;100936.84;;;3.54;100.00
5814;BME280;2933;52.302;8.134;2023-04-27T00:37:19;100934.38;;;3.51;100.00
5814;BME280;2933;52.302;8.134;2023-04-27T00:42:21;100931.50;;;3.27;100.00
5814;BME280;2933;52.302;8.134;2023-04-27T00:47:25;100937.56;;;3.25;100.00
5814;BME280;2933;52.302;8.134;2023-04-27T00:52:27;100954.53;;;2.96;100.00
5814;BME280;2933;52.302;8.134;2023-04-27T00:57:28;100956.81;;;3.11;100.00
5814;BME280;2933;52.302;8.134;2023-04-27T01:02:32;100958.00;;;2.95;100.00
5814;BME280;2933;52.302;8.134;2023-04-27T01:07:36;100964.22;;;2.86;100.00
5814;BME280;2933;52.302;8.134;2023-04-27T01:12:38;100962.13;;;2.63;100.00
5814;BME280;2933;52.302;8.134;2023-04-27T01:17:41;100969.03;;;2.61;100.00
5814;BME280;2933;52.302;8.134;2023-04-27T01:22:43;100964.00;;;2.54;100.00
5814;BME280;2933;52.302;8.134;2023-04-27T01:27:46;100973.88;;;2.32;100.00
5814;BME280;2933;52.302;8.134;2023-04-27T01:32:47;100974.66;;;2.36;100.00
5814;BME280;2933;52.302;8.134;2023-04-27T01:37:49;100971.47;;;2.23;100.00
5814;BME280;2933;52.302;8.134;2023-04-27T01:42:52;100975.88;;;2.16;100.00
5814;BME280;2933;52.302;8.134;2023-04-27T01:47:54;100973.38;;;2.13;100.00
5814;BME280;2933;52.302;8.134;2023-04-27T01:52:56;100987.00;;;2.20;100.00
5814;BME280;2933;52.302;8.134;2023-04-27T01:57:58;100996.06;;;1.94;100.00
5814;BME280;2933;52.302;8.134;2023-04-27T02:03:00;100992.09;;;1.73;100.00
5814;BME280;2933;52.302;8.134;2023-04-27T02:08:02;100986.38;;;1.54;100.00
5814;BME280;2933;52.302;8.134;2023-04-27T02:13:05;100988.34;;;1.36;100.00
5814;BME280;2933;52.302;8.134;2023-04-27T02:18:06;100992.66;;;1.36;100.00
5814;BME280;2933;52.302;8.134;2023-04-27T02:23:08;100999.53;;;1.34;100.00
5814;BME280;2933;52.302;8.134;2023-04-27T02:28:12;101000.66;;;1.14;100.00
5814;BME280;2933;52.302;8.134;2023-04-27T02:33:13;100993.84;;;1.11;100.00
5814;BME280;2933;52.302;8.134;2023-04-27T02:38:15;101009.78;;;1.37;100.00
5814;BME280;2933;52.302;8.134;2023-04-27T02:43:18;100994.06;;;0.96;100.00
5814;BME280;2933;52.302;8.134;2023-04-27T02:48:19;101000.81;;;1.02;100.00
5814;BME280;2933;52.302;8.134;2023-04-27T02:53:21;101000.63;;;1.17;100.00
5814;BME280;2933;52.302;8.134;2023-04-27T02:58:24;100999.00;;;1.10;100.00
5814;BME280;2933;52.302;8.134;2023-04-27T03:03:25;100993.72;;;1.19;100.00
5814;BME280;2933;52.302;8.134;2023-04-27T03:08:27;100987.94;;;1.05;100.00
5814;BME280;2933;52.302;8.134;2023-04-27T03:13:30;100985.38;;;1.05;100.00
5814;BME280;2933;52.302;8.134;2023-04-27T03:18:38;100986.53;;;0.79;100.00
5814;BME280;2933;52.302;8.134;2023-04-27T03:23:39;100981.25;;;0.88;100.00
5814;BME280;2933;52.302;8.134;2023-04-27T03:28:42;100983.84;;;0.88;100.00
5814;BME280;2933;52.302;8.134;2023-04-27T03:33:44;100975.50;;;0.69;100.00
5814;BME280;2933;52.302;8.134;2023-04-27T03:38:45;100981.53;;;0.70;100.00
5814;BME280;2933;52.302;8.134;2023-04-27T03:43:48;100978.41;;;0.40;100.00
5814;BME280;2933;52.302;8.134;2023-04-27T03:48:52;100982.75;;;0.36;100.00
5814;BME280;2933;52.302;8.134;2023-04-27T03:53:53;100988.03;;;0.21;100.00
5814;BME280;2933;52.302;8.134;2023-04-27T03:58:56;100990.56;;;0.25;100.00
5814;BME280;2933;52.302;8.134;2023-04-27T04:03:57;100993.78;;;0.47;100.00
5814;BME280;2933;52.302;8.134;2023-04-27T04:08:59;100987.13;;;0.25;100.00
5814;BME280;2933;52.302;8.134;2023-04-27T04:14:02;100992.34;;;0.20;100.00
5814;BME280;2933;52.302;8.134;2023-04-27T04:19:04;100999.91;;;0.32;100.00
5814;BME280;2933;52.302;8.134;2023-04-27T04:24:06;100991.38;;;0.29;100.00
5814;BME280;2933;52.302;8.134;2023-04-27T04:29:09;100999.91;;;0.31;100.00
5814;BME280;2933;52.302;8.134;2023-04-27T04:34:10;101017.69;;;0.53;100.00
5814;BME280;2933;52.302;8.134;2023-04-27T04:39:12;101014.44;;;0.34;100.00
5814;BME280;2933;52.302;8.134;2023-04-27T04:44:15;101024.09;;;0.13;100.00
5814;BME280;2933;52.302;8.134;2023-04-27T04:49:16;101024.94;;;0.15;100.00
5814;BME280;2933;52.302;8.134;2023-04-27T04:54:18;101023.88;;;0.36;100.00
5814;BME280;2933;52.302;8.134;2023-04-27T04:59:21;101032.31;;;0.49;100.00
5814;BME280;2933;52.302;8.134;2023-04-27T05:04:22;101030.59;;;0.48;100.00
5814;BME280;2933;52.302;8.134;2023-04-27T05:09:24;101033.03;;;0.60;100.00
5814;BME280;2933;52.302;8.134;2023-04-27T05:14:27;101038.69;;;0.92;100.00
5814;BME280;2933;52.302;8.134;2023-04-27T05:19:29;101042.50;;;1.30;100.00
5814;BME280;2933;52.302;8.134;2023-04-27T05:24:32;101046.19;;;1.12;100.00
5814;BME280;2933;52.302;8.134;2023-04-27T05:29:35;101041.50;;;1.42;100.00
5814;BME280;2933;52.302;8.134;2023-04-27T05:34:36;101047.81;;;1.78;100.00
5814;BME280;2933;52.302;8.134;2023-04-27T05:39:38;101051.69;;;2.04;100.00
5814;BME280;2933;52.302;8.134;2023-04-27T05:44:41;101045.28;;;1.75;100.00
5814;BME280;2933;52.302;8.134;2023-04-27T05:49:43;101061.59;;;1.76;100.00
5814;BME280;2933;52.302;8.134;2023-04-27T05:54:48;101065.94;;;2.27;100.00
5814;BME280;2933;52.302;8.134;2023-04-27T05:59:51;101073.19;;;2.55;100.00
5814;BME280;2933;52.302;8.134;2023-04-27T06:04:52;101075.22;;;2.84;100.00
5814;BME280;2933;52.302;8.134;2023-04-27T06:09:54;101071.41;;;3.45;100.00
5814;BME280;2933;52.302;8.134;2023-04-27T06:14:56;101077.38;;;3.86;100.00
5814;BME280;2933;52.302;8.134;2023-04-27T06:19:58;101067.31;;;4.10;100.00
5814;BME280;2933;52.302;8.134;2023-04-27T06:25:00;101072.34;;;4.50;100.00
5814;BME280;2933;52.302;8.134;2023-04-27T06:30:04;101076.03;;;4.73;100.00
5814;BME280;2933;52.302;8.134;2023-04-27T06:35:07;101079.13;;;4.86;100.00
5814;BME280;2933;52.302;8.134;2023-04-27T06:40:10;101080.22;;;5.10;100.00
5814;BME280;2933;52.302;8.134;2023-04-27T06:45:13;101083.91;;;5.01;100.00
5814;BME280;2933;52.302;8.134;2023-04-27T06:50:15;101087.22;;;5.07;100.00
5814;BME280;2933;52.302;8.134;2023-04-27T06:55:16;101085.03;;;5.53;100.00
5814;BME280;2933;52.302;8.134;2023-04-27T07:00:20;101088.38;;;5.85;98.14
5814;BME280;2933;52.302;8.134;2023-04-27T07:05:22;101077.28;;;6.08;98.56
5814;BME280;2933;52.302;8.134;2023-04-27T07:10:23;101073.97;;;6.03;100.00
5814;BME280;2933;52.302;8.134;2023-04-27T07:15:26;101083.91;;;6.43;95.15
5814;BME280;2933;52.302;8.134;2023-04-27T07:20:28;101088.69;;;6.29;90.76
5814;BME280;2933;52.302;8.134;2023-04-27T07:25:30;101090.66;;;6.47;87.55
5814;BME280;2933;52.302;8.134;2023-04-27T07:30:33;101086.28;;;6.50;85.94
5814;BME280;2933;52.302;8.134;2023-04-27T07:35:36;101082.78;;;6.51;86.86
5814;BME280;2933;52.302;8.134;2023-04-27T07:40:37;101076.16;;;6.67;85.55
5814;BME280;2933;52.302;8.134;2023-04-27T07:45:40;101072.09;;;6.84;86.32
5814;BME280;2933;52.302;8.134;2023-04-27T07:50:43;101081.38;;;6.91;83.25
5814;BME280;2933;52.302;8.134;2023-04-27T07:55:45;101068.91;;;7.01;82.22
5814;BME280;2933;52.302;8.134;2023-04-27T08:00:48;101063.91;;;6.71;80.86
5814;BME280;2933;52.302;8.134;2023-04-27T08:05:49;101073.66;;;6.89;82.11
5814;BME280;2933;52.302;8.134;2023-04-27T08:10:51;101071.09;;;6.64;79.73
5814;BME280;2933;52.302;8.134;2023-04-27T08:15:54;101065.91;;;6.64;80.48
5814;BME280;2933;52.302;8.134;2023-04-27T08:20:57;101071.44;;;7.02;83.66
5814;BME280;2933;52.302;8.134;2023-04-27T08:25:59;101075.66;;;7.52;78.80
5814;BME280;2933;52.302;8.134;2023-04-27T08:31:02;101066.75;;;8.02;77.42
5814;BME280;2933;52.302;8.134;2023-04-27T08:36:04;101078.59;;;8.30;77.01
5814;BME280;2933;52.302;8.134;2023-04-27T08:41:05;101075.09;;;8.72;77.91
5814;BME280;2933;52.302;8.134;2023-04-27T08:46:08;101080.28;;;8.31;69.34
5814;BME280;2933;52.302;8.134;2023-04-27T08:51:13;101079.06;;;8.40;69.73
5814;BME280;2933;52.302;8.134;2023-04-27T08:56:15;101075.00;;;8.95;71.60
5814;BME280;2933;52.302;8.134;2023-04-27T09:01:18;101080.84;;;9.00;64.84
5814;BME280;2933;52.302;8.134;2023-04-27T09:06:28;101079.59;;;9.47;63.86
5814;BME280;2933;52.302;8.134;2023-04-27T09:11:32;101078.72;;;9.29;61.18
5814;BME280;2933;52.302;8.134;2023-04-27T09:16:36;101075.28;;;8.88;57.82
5814;BME280;2933;52.302;8.134;2023-04-27T09:21:37;101079.31;;;9.15;59.08
5814;BME280;2933;52.302;8.134;2023-04-27T09:26:39;101075.47;;;9.97;61.86
5814;BME280;2933;52.302;8.134;2023-04-27T09:31:43;101080.34;;;10.05;54.37
5814;BME280;2933;52.302;8.134;2023-04-27T09:36:44;101081.41;;;10.35;52.54
5814;BME280;2933;52.302;8.134;2023-04-27T09:41:48;101068.81;;;10.26;52.62
5814;BME280;2933;52.302;8.134;2023-04-27T09:46:51;101060.78;;;10.48;51.23
5814;BME280;2933;52.302;8.134;2023-04-27T09:51:54;101065.91;;;10.50;54.48
5814;BME280;2933;52.302;8.134;2023-04-27T09:57:11;101050.16;;;10.51;56.88
5814;BME280;2933;52.302;8.134;2023-04-27T10:02:20;101059.31;;;11.10;54.24
5814;BME280;2933;52.302;8.134;2023-04-27T10:07:25;101056.34;;;10.66;53.00
5814;BME280;2933;52.302;8.134;2023-04-27T10:12:32;101051.06;;;10.15;54.01
5814;BME280;2933;52.302;8.134;2023-04-27T10:17:35;101049.66;;;9.73;55.34
5814;BME280;2933;52.302;8.134;2023-04-27T10:22:37;101055.88;;;9.70;56.72
5814;BME280;2933;52.302;8.134;2023-04-27T10:27:39;101051.31;;;9.57;55.24
5814;BME280;2933;52.302;8.134;2023-04-27T10:32:51;101040.81;;;9.95;59.08
5814;BME280;2933;52.302;8.134;2023-04-27T10:38:04;101050.09;;;10.87;55.44
5814;BME280;2933;52.302;8.134;2023-04-27T10:43:10;101047.25;;;11.23;52.07
5814;BME280;2933;52.302;8.134;2023-04-27T10:48:14;101058.22;;;11.62;52.44
5814;BME280;2933;52.302;8.134;2023-04-27T10:53:15;101047.97;;;11.73;47.54
5814;BME280;2933;52.302;8.134;2023-04-27T10:58:21;101042.59;;;12.07;50.31
5814;BME280;2933;52.302;8.134;2023-04-27T11:03:25;101027.56;;;12.10;49.60
5814;BME280;2933;52.302;8.134;2023-04-27T11:08:26;101029.13;;;12.43;47.17
5814;BME280;2933;52.302;8.134;2023-04-27T11:13:29;101012.78;;;11.93;46.21
5814;BME280;2933;52.302;8.134;2023-04-27T11:18:36;101012.53;;;12.28;46.76
5814;BME280;2933;52.302;8.134;2023-04-27T11:23:38;101003.09;;;12.55;47.09
5814;BME280;2933;52.302;8.134;2023-04-27T11:28:41;101006.09;;;12.49;43.65
5814;BME280;2933;52.302;8.134;2023-04-27T11:33:48;101001.50;;;12.81;46.70
5814;BME280;2933;52.302;8.134;2023-04-27T11:38:56;101003.56;;;12.47;44.64
5814;BME280;2933;52.302;8.134;2023-04-27T11:44:02;101004.41;;;12.62;44.26
5814;BME280;2933;52.302;8.134;2023-04-27T11:49:06;101004.22;;;12.65;44.84
5814;BME280;2933;52.302;8.134;2023-04-27T11:54:08;101001.66;;;12.92;46.96
5814;BME280;2933;52.302;8.134;2023-04-27T11:59:18;100996.06;;;12.55;44.06
5814;BME280;2933;52.302;8.134;2023-04-27T12:04:21;100995.31;;;12.39;44.34
5814;BME280;2933;52.302;8.134;2023-04-27T12:09:22;100997.66;;;12.72;41.92
5814;BME280;2933;52.302;8.134;2023-04-27T12:14:24;101002.03;;;12.86;43.03
5814;BME280;2933;52.302;8.134;2023-04-27T12:19:27;101005.97;;;12.93;41.76
5814;BME280;2933;52.302;8.134;2023-04-27T12:24:30;101006.56;;;13.26;39.56
5814;BME280;2933;52.302;8.134;2023-04-27T12:29:31;101005.88;;;12.95;38.55
5814;BME280;2933;52.302;8.134;2023-04-27T12:34:34;100997.66;;;12.87;42.11
5814;BME280;2933;52.302;8.134;2023-04-27T12:39:38;100991.16;;;12.92;41.74
5814;BME280;2933;52.302;8.134;2023-04-27T12:44:40;101000.81;;;13.48;39.17
5814;BME280;2933;52.302;8.134;2023-04-27T12:49:43;100988.63;;;13.47;38.51
5814;BME280;2933;52.302;8.134;2023-04-27T12:54:44;100994.44;;;13.11;38.99
5814;BME280;2933;52.302;8.134;2023-04-27T12:59:46;100993.69;;;13.50;39.25
5814;BME280;2933;52.302;8.134;2023-04-27T13:04:49;100999.59;;;12.11;39.90
5814;BME280;2933;52.302;8.134;2023-04-27T13:09:51;100994.19;;;12.43;40.79
5814;BME280;2933;52.302;8.134;2023-04-27T13:14:52;100991.09;;;12.07;41.35
5814;BME280;2933;52.302;8.134;2023-04-27T13:19:55;100988.84;;;12.16;40.71
5814;BME280;2933;52.302;8.134;2023-04-27T13:24:56;100994.00;;;12.32;41.82
5814;BME280;2933;52.302;8.134;2023-04-27T13:29:58;100989.69;;;12.31;39.82
5814;BME280;2933;52.302;8.134;2023-04-27T13:35:01;100976.41;;;12.77;40.73
5814;BME280;2933;52.302;8.134;2023-04-27T13:40:03;100969.75;;;12.71;39.53
5814;BME280;2933;52.302;8.134;2023-04-27T13:45:06;100969.56;;;13.16;41.24
5814;BME280;2933;52.302;8.134;2023-04-27T13:50:10;100960.91;;;13.43;38.60
5814;BME280;2933;52.302;8.134;2023-04-27T13:55:11;100963.41;;;13.03;39.65
5814;BME280;2933;52.302;8.134;2023-04-27T14:00:13;100966.66;;;12.79;38.38
5814;BME280;2933;52.302;8.134;2023-04-27T14:05:17;100966.13;;;12.59;38.57
5814;BME280;2933;52.302;8.134;2023-04-27T14:10:18;100951.56;;;13.39;36.74
5814;BME280;2933;52.302;8.134;2023-04-27T14:15:20;100944.22;;;13.02;36.04
5814;BME280;2933;52.302;8.134;2023-04-27T14:20:23;100944.88;;;13.06;36.87
5814;BME280;2933;52.302;8.134;2023-04-27T14:25:26;100934.81;;;13.80;38.04
5814;BME280;2933;52.302;8.134;2023-04-27T14:30:32;100940.94;;;13.40;39.36
5814;BME280;2933;52.302;8.134;2023-04-27T14:35:36;100937.84;;;13.06;39.23
5814;BME280;2933;52.302;8.134;2023-04-27T14:40:37;100940.41;;;12.37;38.17
5814;BME280;2933;52.302;8.134;2023-04-27T14:45:39;100939.53;;;12.37;39.28
5814;BME280;2933;52.302;8.134;2023-04-27T14:50:42;100931.16;;;12.88;37.70
5814;BME280;2933;52.302;8.134;2023-04-27T14:55:43;100924.69;;;12.93;37.23
5814;BME280;2933;52.302;8.134;2023-04-27T15:00:45;100917.41;;;12.84;36.28
5814;BME280;2933;52.302;8.134;2023-04-27T15:05:48;100918.03;;;12.88;37.10
5814;BME280;2933;52.302;8.134;2023-04-27T15:10:50;100920.59;;;12.89;38.20
5814;BME280;2933;52.302;8.134;2023-04-27T15:15:53;100926.41;;;13.07;39.44
5814;BME280;2933;52.302;8.134;2023-04-27T15:20:57;100924.00;;;13.04;39.08
5814;BME280;2933;52.302;8.134;2023-04-27T15:25:59;100912.97;;;13.27;39.55
5814;BME280;2933;52.302;8.134;2023-04-27T15:31:01;100912.88;;;13.01;38.35
5814;BME280;2933;52.302;8.134;2023-04-27T15:36:04;100901.81;;;12.54;38.42
5814;BME280;2933;52.302;8.134;2023-04-27T15:41:06;100906.28;;;12.81;38.50
5814;BME280;2933;52.302;8.134;2023-04-27T15:46:08;100894.88;;;12.67;39.58
5814;BME280;2933;52.302;8.134;2023-04-27T15:51:10;100891.22;;;12.70;38.04
5814;BME280;2933;52.302;8.134;2023-04-27T15:56:12;100892.56;;;12.48;38.65
5814;BME280;2933;52.302;8.134;2023-04-27T16:01:15;100898.88;;;12.31;38.32
5814;BME280;2933;52.302;8.134;2023-04-27T16:06:17;100882.19;;;12.47;39.20
5814;BME280;2933;52.302;8.134;2023-04-27T16:11:19;100887.00;;;12.11;40.22
5814;BME280;2933;52.302;8.134;2023-04-27T16:16:20;100891.50;;;12.23;42.48
5814;BME280;2933;52.302;8.134;2023-04-27T16:21:23;100871.28;;;12.11;41.83
5814;BME280;2933;52.302;8.134;2023-04-27T16:26:26;100864.91;;;12.01;41.46
5814;BME280;2933;52.302;8.134;2023-04-27T16:31:27;100860.84;;;11.80;43.07
5814;BME280;2933;52.302;8.134;2023-04-27T16:36:30;100855.34;;;11.85;41.72
5814;BME280;2933;52.302;8.134;2023-04-27T16:41:32;100851.38;;;11.63;43.28
5814;BME280;2933;52.302;8.134;2023-04-27T16:46:34;100854.03;;;11.78;43.58
5814;BME280;2933;52.302;8.134;2023-04-27T16:51:37;100860.66;;;11.69;43.99
5814;BME280;2933;52.302;8.134;2023-04-27T16:56:38;100848.69;;;11.65;44.81
5814;BME280;2933;52.302;8.134;2023-04-27T17:01:40;100835.13;;;11.58;44.62
5814;BME280;2933;52.302;8.134;2023-04-27T17:06:43;100836.41;;;11.37;44.62
5814;BME280;2933;52.302;8.134;2023-04-27T17:11:47;100824.94;;;11.54;45.48
5814;BME280;2933;52.302;8.134;2023-04-27T17:16:48;100823.63;;;11.46;45.13
5814;BME280;2933;52.302;8.134;2023-04-27T17:21:51;100811.44;;;11.31;44.57
5814;BME280;2933;52.302;8.134;2023-04-27T17:26:53;100806.59;;;11.39;46.20
5814;BME280;2933;52.302;8.134;2023-04-27T17:31:54;100811.56;;;11.44;47.20
5814;BME280;2933;52.302;8.134;2023-04-27T17:36:57;100810.88;;;11.26;46.41
5814;BME280;2933;52.302;8.134;2023-04-27T17:41:59;100807.13;;;11.30;46.09
5814;BME280;2933;52.302;8.134;2023-04-27T17:47:00;100805.22;;;11.18;47.40
5814;BME280;2933;52.302;8.134;2023-04-27T17:52:04;100805.47;;;11.29;48.11
5814;BME280;2933;52.302;8.134;2023-04-27T17:57:05;100793.25;;;10.99;48.97
5814;BME280;2933;52.302;8.134;2023-04-27T18:02:08;100800.84;;;10.88;50.63
5814;BME280;2933;52.302;8.134;2023-04-27T18:07:11;100801.81;;;10.87;49.61
5814;BME280;2933;52.302;8.134;2023-04-27T18:12:12;100797.00;;;10.79;50.13
5814;BME280;2933;52.302;8.134;2023-04-27T18:17:14;100794.22;;;10.82;50.47
5814;BME280;2933;52.302;8.134;2023-04-27T18:22:16;100788.44;;;10.91;51.25
5814;BME280;2933;52.302;8.134;2023-04-27T18:27:18;100793.66;;;10.61;51.58
5814;BME280;2933;52.302;8.134;2023-04-27T18:32:20;100794.78;;;10.41;52.16
5814;BME280;2933;52.302;8.134;2023-04-27T18:37:23;100786.03;;;10.24;53.48
5814;BME280;2933;52.302;8.134;2023-04-27T18:42:24;100780.00;;;10.24;53.92
5814;BME280;2933;52.302;8.134;2023-04-27T18:47:26;100776.00;;;10.00;54.30
5814;BME280;2933;52.302;8.134;2023-04-27T18:52:29;100782.25;;;9.98;55.44
5814;BME280;2933;52.302;8.134;2023-04-27T18:57:30;100790.44;;;10.08;56.19
5814;BME280;2933;52.302;8.134;2023-04-27T19:02:32;100784.84;;;9.98;56.78
5814;BME280;2933;52.302;8.134;2023-04-27T19:07:35;100786.19;;;9.89;57.67
5814;BME280;2933;52.302;8.134;2023-04-27T19:12:36;100785.66;;;9.66;57.42
5814;BME280;2933;52.302;8.134;2023-04-27T19:17:38;100789.84;;;9.69;59.81
5814;BME280;2933;52.302;8.134;2023-04-27T19:22:41;100778.59;;;9.51;60.39
5814;BME280;2933;52.302;8.134;2023-04-27T19:27:43;100781.81;;;9.23;61.53
5814;BME280;2933;52.302;8.134;2023-04-27T19:32:45;100779.09;;;9.24;65.55
5814;BME280;2933;52.302;8.134;2023-04-27T19:37:48;100787.06;;;9.03;64.58
5814;BME280;2933;52.302;8.134;2023-04-27T19:42:51;100786.06;;;9.06;64.99
5814;BME280;2933;52.302;8.134;2023-04-27T19:47:53;100785.84;;;8.93;66.64
5814;BME280;2933;52.302;8.134;2023-04-27T19:52:59;100781.06;;;8.84;68.47
5814;BME280;2933;52.302;8.134;2023-04-27T19:58:00;100777.25;;;8.73;69.32
5814;BME280;2933;52.302;8.134;2023-04-27T20:03:02;100778.69;;;8.43;69.98
5814;BME280;2933;52.302;8.134;2023-04-27T20:08:06;100772.47;;;8.47;70.13
5814;BME280;2933;52.302;8.134;2023-04-27T20:13:08;100765.53;;;8.46;70.60
5814;BME280;2933;52.302;8.134;2023-04-27T20:18:10;100765.97;;;8.17;72.48
5814;BME280;2933;52.302;8.134;2023-04-27T20:23:12;100765.91;;;8.00;72.43
5814;BME280;2933;52.302;8.134;2023-04-27T20:28:14;100754.22;;;8.08;72.94
5814;BME280;2933;52.302;8.134;2023-04-27T20:33:17;100748.47;;;7.83;74.65
5814;BME280;2933;52.302;8.134;2023-04-27T20:38:20;100740.56;;;7.65;74.82
5814;BME280;2933;52.302;8.134;2023-04-27T20:43:22;100738.59;;;7.70;74.05
5814;BME280;2933;52.302;8.134;2023-04-27T20:48:23;100734.66;;;7.62;74.56
5814;BME280;2933;52.302;8.134;2023-04-27T20:53:29;100743.63;;;7.35;76.94
5814;BME280;2933;52.302;8.134;2023-04-27T20:58:30;100728.66;;;7.20;76.78
5814;BME280;2933;52.302;8.134;2023-04-27T21:03:32;100728.53;;;7.43;75.60
5814;BME280;2933;52.302;8.134;2023-04-27T21:08:35;100725.00;;;7.44;73.22
5814;BME280;2933;52.302;8.134;2023-04-27T21:13:36;100723.44;;;7.61;70.53
5814;BME280;2933;52.302;8.134;2023-04-27T21:18:38;100716.63;;;7.58;68.70
5814;BME280;2933;52.302;8.134;2023-04-27T21:23:41;100721.03;;;7.56;67.90
5814;BME280;2933;52.302;8.134;2023-04-27T21:28:42;100714.94;;;7.76;67.59
5814;BME280;2933;52.302;8.134;2023-04-27T21:33:44;100703.00;;;7.72;67.01
5814;BME280;2933;52.302;8.134;2023-04-27T21:38:47;100692.22;;;7.61;67.15
5814;BME280;2933;52.302;8.134;2023-04-27T21:43:48;100688.06;;;7.57;67.43
5814;BME280;2933;52.302;8.134;2023-04-27T21:48:50;100681.47;;;7.69;67.61
5814;BME280;2933;52.302;8.134;2023-04-27T21:53:54;100675.50;;;7.86;67.40
5814;BME280;2933;52.302;8.134;2023-04-27T21:58:55;100665.44;;;7.78;66.83
5814;BME280;2933;52.302;8.134;2023-04-27T22:03:57;100653.28;;;7.79;67.52
5814;BME280;2933;52.302;8.134;2023-04-27T22:09:01;100635.78;;;7.82;67.90
5814;BME280;2933;52.302;8.134;2023-04-27T22:14:02;100644.00;;;7.92;67.16
5814;BME280;2933;52.302;8.134;2023-04-27T22:19:04;100637.19;;;7.89;67.38
5814;BME280;2933;52.302;8.134;2023-04-27T22:24:07;100629.59;;;7.66;67.56
5814;BME280;2933;52.302;8.134;2023-04-27T22:29:09;100635.59;;;7.49;69.52
5814;BME280;2933;52.302;8.134;2023-04-27T22:34:11;100621.41;;;7.56;70.85
5814;BME280;2933;52.302;8.134;2023-04-27T22:39:14;100619.06;;;7.69;67.76
5814;BME280;2933;52.302;8.134;2023-04-27T22:44:16;100607.41;;;7.58;67.35
5814;BME280;2933;52.302;8.134;2023-04-27T22:49:17;100611.06;;;7.54;68.18
5814;BME280;2933;52.302;8.134;2023-04-27T22:54:20;100610.03;;;7.58;69.78
5814;BME280;2933;52.302;8.134;2023-04-27T22:59:22;100598.06;;;7.54;70.24
5814;BME280;2933;52.302;8.134;2023-04-27T23:04:24;100590.25;;;7.54;70.59
5814;BME280;2933;52.302;8.134;2023-04-27T23:09:27;100590.47;;;7.31;71.66
5814;BME280;2933;52.302;8.134;2023-04-27T23:14:28;100588.38;;;7.39;74.13
5814;BME280;2933;52.302;8.134;2023-04-27T23:19:30;100578.72;;;7.41;73.48
5814;BME280;2933;52.302;8.134;2023-04-27T23:24:33;100586.25;;;7.28;73.56
5814;BME280;2933;52.302;8.134;2023-04-27T23:29:35;100564.56;;;7.29;73.88
5814;BME280;2933;52.302;8.134;2023-04-27T23:34:37;100565.22;;;7.15;75.45
5814;BME280;2933;52.302;8.134;2023-04-27T23:39:40;100555.56;;;7.17;74.60
5814;BME280;2933;52.302;8.134;2023-04-27T23:44:42;100554.03;;;7.13;75.34
5814;BME280;2933;52.302;8.134;2023-04-27T23:49:44;100559.09;;;7.35;75.00
5814;BME280;2933;52.302;8.134;2023-04-27T23:54:46;100544.47;;;7.14;77.12
5814;BME280;2933;52.302;8.134;2023-04-27T23:59:48;100539.91;;;7.00;77.74
